createdAt,value
2019-02-17T00:00:35.384Z,13.32
2019-02-17T00:03:04.177Z,12.70
2019-02-17T00:05:32.928Z,12.25
2019-02-17T00:08:01.812Z,12.00
2019-02-17T00:10:30.842Z,11.85
2019-02-17T00:13:00.712Z,13.48
2019-02-17T00:15:29.756Z,11.12
2019-02-17T00:17:58.254Z,11.83
2019-02-17T00:20:26.969Z,12.43
2019-02-17T00:22:56.029Z,11.00
2019-02-17T00:25:24.802Z,12.23
2019-02-17T00:27:53.545Z,10.95
2019-02-17T00:30:22.606Z,11.57
2019-02-17T00:32:51.556Z,11.20
2019-02-17T00:35:20.609Z,11.38
2019-02-17T00:37:49.959Z,8.95
2019-02-17T00:40:18.747Z,9.73
2019-02-17T00:42:48.041Z,10.25
2019-02-17T00:45:17.084Z,9.50
2019-02-17T00:47:45.905Z,10.98
2019-02-17T00:50:14.687Z,9.00
2019-02-17T00:52:43.519Z,10.95
2019-02-17T00:55:12.419Z,12.95
2019-02-17T00:57:41.226Z,11.63
2019-02-17T01:00:09.582Z,10.40
2019-02-17T01:02:38.695Z,11.88
2019-02-17T01:05:07.486Z,12.45
2019-02-17T01:07:35.885Z,12.58
2019-02-17T01:10:04.926Z,11.33
2019-02-17T01:12:33.633Z,11.85
2019-02-17T01:15:02.401Z,12.10
2019-02-17T01:17:31.374Z,11.80
2019-02-17T01:20:00.404Z,9.90
2019-02-17T01:22:28.963Z,9.80
2019-02-17T01:24:58.491Z,9.90
2019-02-17T01:27:27.457Z,9.18
2019-02-17T01:29:56.422Z,10.93
2019-02-17T01:32:25.220Z,11.43
2019-02-17T01:34:54.121Z,10.13
2019-02-17T01:37:23.806Z,10.18
2019-02-17T01:39:53.529Z,10.65
2019-02-17T01:42:26.718Z,9.70
2019-02-17T01:44:55.116Z,9.25
2019-02-17T01:47:23.921Z,11.53
2019-02-17T01:49:52.394Z,10.80
2019-02-17T01:52:21.186Z,10.80
2019-02-17T01:54:50.268Z,11.78
2019-02-17T01:57:19.527Z,10.28
2019-02-17T01:59:48.724Z,8.73
2019-02-17T02:02:17.163Z,9.83
2019-02-17T02:04:46.162Z,9.20
2019-02-17T02:07:14.640Z,9.88
2019-02-17T02:09:43.528Z,8.58
2019-02-17T02:12:12.441Z,9.43
2019-02-17T02:14:41.200Z,8.40
2019-02-17T02:17:10.186Z,9.20
2019-02-17T02:19:39.135Z,9.43
2019-02-17T02:22:09.022Z,9.10
2019-02-17T02:24:38.135Z,9.43
2019-02-17T02:27:07.080Z,10.25
2019-02-17T02:29:41.075Z,8.88
2019-02-17T02:32:06.406Z,9.15
2019-02-17T02:34:35.218Z,8.55
2019-02-17T02:37:05.147Z,8.78
2019-02-17T02:39:33.993Z,9.63
2019-02-17T02:42:02.832Z,8.50
2019-02-17T02:44:31.701Z,7.60
2019-02-17T02:47:00.736Z,9.63
2019-02-17T02:49:29.527Z,7.40
2019-02-17T02:51:58.249Z,8.55
2019-02-17T02:54:27.165Z,8.90
2019-02-17T02:56:56.150Z,10.00
2019-02-17T02:59:24.997Z,8.93
2019-02-17T03:01:54.762Z,9.50
2019-02-17T03:04:23.431Z,8.50
2019-02-17T03:06:57.127Z,9.00
2019-02-17T03:09:25.982Z,9.05
2019-02-17T03:11:54.327Z,8.53
2019-02-17T03:14:23.077Z,8.98
2019-02-17T03:16:51.755Z,9.08
2019-02-17T03:19:20.509Z,8.68
2019-02-17T03:21:50.333Z,8.48
2019-02-17T03:24:19.318Z,7.62
2019-02-17T03:26:48.234Z,8.10
2019-02-17T03:29:16.961Z,8.03
2019-02-17T03:31:45.648Z,6.83
2019-02-17T03:34:14.174Z,8.15
2019-02-17T03:36:42.544Z,8.08
2019-02-17T03:39:11.898Z,7.85
2019-02-17T03:41:40.819Z,8.23
2019-02-17T03:44:09.876Z,8.98
2019-02-17T03:46:38.735Z,8.05
2019-02-17T03:49:07.718Z,7.97
2019-02-17T03:51:36.657Z,8.20
2019-02-17T03:54:05.137Z,6.83
2019-02-17T03:56:34.308Z,7.97
2019-02-17T03:59:03.352Z,8.35
2019-02-17T04:01:32.397Z,8.13
2019-02-17T04:04:01.406Z,7.33
2019-02-17T04:06:30.300Z,7.90
2019-02-17T04:08:59.378Z,7.33
2019-02-17T04:11:28.135Z,7.45
2019-02-17T04:13:57.804Z,5.87
2019-02-17T04:16:26.508Z,7.28
2019-02-17T04:18:55.305Z,8.08
2019-02-17T04:21:42.377Z,7.60
2019-02-17T04:24:13.088Z,5.53
2019-02-17T04:26:42.471Z,11.22
2019-02-17T04:29:18.773Z,8.48
2019-02-17T04:32:13.445Z,7.10
2019-02-17T04:34:56.642Z,7.12
2019-02-17T04:37:28.010Z,7.00
2019-02-17T04:40:25.701Z,6.97
2019-02-17T04:42:59.589Z,6.47
2019-02-17T04:45:30.615Z,5.85
2019-02-17T04:48:02.211Z,6.03
2019-02-17T04:50:34.197Z,6.60
2019-02-17T04:53:08.264Z,6.40
2019-02-17T04:55:47.090Z,5.80
2019-02-17T04:58:16.803Z,6.75
2019-02-17T05:00:46.046Z,6.05
2019-02-17T05:03:16.076Z,6.42
2019-02-17T05:05:45.814Z,6.40
2019-02-17T05:08:16.534Z,5.53
2019-02-17T05:10:50.769Z,5.12
2019-02-17T05:13:22.313Z,5.10
2019-02-17T05:15:54.402Z,5.87
2019-02-17T05:18:24.038Z,5.60
2019-02-17T05:20:56.247Z,5.17
2019-02-17T05:23:31.365Z,5.62
2019-02-17T05:25:59.991Z,6.53
2019-02-17T05:28:29.523Z,4.47
2019-02-17T05:31:03.497Z,5.92
2019-02-17T05:33:33.836Z,6.50
2019-02-17T05:36:10.075Z,7.15
2019-02-17T05:38:42.704Z,7.35
2019-02-17T05:41:14.489Z,7.85
2019-02-17T05:43:43.716Z,8.28
2019-02-17T05:46:13.068Z,6.70
2019-02-17T05:48:48.442Z,6.70
2019-02-17T05:51:39.721Z,6.05
2019-02-17T05:54:29.545Z,8.25
2019-02-17T05:56:58.419Z,6.03
2019-02-17T05:59:38.000Z,6.90
2019-02-17T06:02:31.657Z,7.33
2019-02-17T06:05:10.525Z,6.35
2019-02-17T06:07:50.677Z,7.40
2019-02-17T06:10:31.508Z,7.85
2019-02-17T06:13:10.842Z,5.75
2019-02-17T06:15:57.849Z,7.65
2019-02-17T06:18:44.661Z,10.18
2019-02-17T06:21:16.279Z,9.28
2019-02-17T06:23:54.921Z,11.70
2019-02-17T06:26:24.360Z,9.13
2019-02-17T06:28:53.299Z,7.47
2019-02-17T06:31:50.742Z,8.38
2019-02-17T06:34:43.430Z,8.68
2019-02-17T06:37:19.295Z,8.25
2019-02-17T06:40:06.829Z,8.38
2019-02-17T06:42:39.708Z,7.75
2019-02-17T06:45:14.582Z,7.42
2019-02-17T06:47:44.065Z,8.10
2019-02-17T06:50:13.428Z,7.40
2019-02-17T06:52:42.770Z,7.75
2019-02-17T06:55:35.204Z,8.25
2019-02-17T06:58:08.870Z,7.47
2019-02-17T07:00:46.871Z,8.25
2019-02-17T07:03:21.527Z,7.90
2019-02-17T07:06:29.515Z,9.15
2019-02-17T07:09:04.792Z,10.05
2019-02-17T07:14:55.182Z,10.60
2019-02-17T07:17:42.087Z,9.38
2019-02-17T07:20:22.019Z,8.88
2019-02-17T07:22:57.988Z,8.10
2019-02-17T07:25:30.667Z,7.60
2019-02-17T07:27:59.912Z,7.45
2019-02-17T07:30:32.153Z,9.50
2019-02-17T07:33:08.559Z,7.97
2019-02-17T07:35:37.370Z,9.20
2019-02-17T07:38:09.713Z,9.35
2019-02-17T07:40:39.023Z,7.28
2019-02-17T07:43:14.568Z,9.53
2019-02-17T07:46:01.628Z,9.38
2019-02-17T07:49:15.988Z,8.18
2019-02-17T07:54:43.738Z,15.55
2019-02-17T07:57:31.723Z,36.95
2019-02-17T08:00:04.793Z,33.33
2019-02-17T08:02:42.609Z,25.65
2019-02-17T08:05:15.311Z,19.35
2019-02-17T08:07:53.748Z,14.45
2019-02-17T08:10:25.312Z,10.45
2019-02-17T08:12:54.877Z,10.00
2019-02-17T08:15:24.600Z,10.40
2019-02-17T08:17:54.404Z,13.05
2019-02-17T08:20:29.289Z,16.73
2019-02-17T08:23:01.873Z,13.60
2019-02-17T08:25:31.022Z,15.87
2019-02-17T08:28:01.238Z,11.97
2019-02-17T08:30:35.788Z,11.13
2019-02-17T08:33:14.600Z,10.37
2019-02-17T08:35:50.652Z,10.20
2019-02-17T08:38:24.330Z,11.90
2019-02-17T08:41:14.032Z,13.17
2019-02-17T08:43:49.318Z,12.07
2019-02-17T08:46:28.526Z,11.90
2019-02-17T08:49:04.096Z,13.37
2019-02-17T08:51:36.992Z,11.77
2019-02-17T08:57:14.683Z,12.53
2019-02-17T08:59:52.287Z,10.70
2019-02-17T09:02:25.566Z,11.47
2019-02-17T09:04:55.573Z,10.13
2019-02-17T09:07:46.342Z,10.33
2019-02-17T09:10:21.792Z,9.83
2019-02-17T09:12:53.143Z,8.17
2019-02-17T09:15:28.405Z,9.07
2019-02-17T09:17:57.958Z,8.20
2019-02-17T09:20:27.627Z,8.03
2019-02-17T09:26:05.016Z,11.33
2019-02-17T09:28:42.894Z,7.70
2019-02-17T09:31:37.623Z,8.57
2019-02-17T09:34:09.889Z,5.60
2019-02-17T09:36:43.226Z,5.50
2019-02-17T09:39:26.960Z,4.83
2019-02-17T09:42:10.356Z,4.47
2019-02-17T09:44:56.793Z,5.77
2019-02-17T09:47:39.440Z,5.03
2019-02-17T09:50:12.626Z,5.40
2019-02-17T09:53:01.986Z,5.33
2019-02-17T09:55:35.981Z,4.00
2019-02-17T09:58:25.957Z,3.70
2019-02-17T10:01:15.303Z,4.00
2019-02-17T10:03:52.062Z,3.70
2019-02-17T10:06:28.534Z,4.10
2019-02-17T10:09:01.775Z,3.73
2019-02-17T10:12:18.070Z,3.40
2019-02-17T10:14:47.992Z,3.40
2019-02-17T10:17:32.851Z,3.73
2019-02-17T10:20:16.183Z,3.73
2019-02-17T10:22:45.611Z,3.73
2019-02-17T10:25:26.571Z,3.83
2019-02-17T10:27:58.830Z,3.80
2019-02-17T10:30:28.339Z,4.07
2019-02-17T10:32:58.994Z,3.37
2019-02-17T10:35:28.350Z,2.63
2019-02-17T10:37:57.410Z,2.67
2019-02-17T10:40:26.172Z,3.07
2019-02-17T10:42:55.901Z,2.97
2019-02-17T10:45:26.268Z,2.90
2019-02-17T10:47:55.642Z,2.80
2019-02-17T10:50:24.907Z,1.90
2019-02-17T10:52:53.549Z,2.43
2019-02-17T10:55:22.197Z,3.17
2019-02-17T10:57:51.972Z,2.27
2019-02-17T11:00:20.330Z,2.30
2019-02-17T11:02:48.623Z,2.17
2019-02-17T11:05:17.277Z,1.77
2019-02-17T11:07:46.293Z,1.50
2019-02-17T11:10:15.003Z,2.33
2019-02-17T11:12:44.351Z,1.97
2019-02-17T11:15:15.380Z,1.43
2019-02-17T11:17:44.557Z,1.30
2019-02-17T11:20:13.198Z,1.40
2019-02-17T11:22:41.542Z,1.60
2019-02-17T11:25:10.194Z,1.50
2019-02-17T11:27:38.868Z,1.60
2019-02-17T11:30:09.596Z,1.40
2019-02-17T11:32:38.279Z,1.50
2019-02-17T11:35:07.093Z,1.17
2019-02-17T11:37:35.884Z,1.17
2019-02-17T11:40:05.202Z,1.30
2019-02-17T11:42:33.962Z,1.20
2019-02-17T11:45:02.311Z,1.00
2019-02-17T11:47:31.074Z,1.17
2019-02-17T11:49:59.837Z,1.00
2019-02-17T11:52:28.884Z,1.20
2019-02-17T11:54:57.667Z,1.30
2019-02-17T11:57:26.392Z,1.03
2019-02-17T11:59:55.295Z,1.40
2019-02-17T12:02:25.341Z,1.13
2019-02-17T12:04:54.485Z,1.00
2019-02-17T12:07:22.845Z,1.00
2019-02-17T12:09:51.609Z,1.03
2019-02-17T12:12:20.329Z,1.00
2019-02-17T12:14:48.988Z,1.20
2019-02-17T12:17:17.650Z,1.00
2019-02-17T12:19:46.290Z,1.90
2019-02-17T12:22:28.402Z,1.90
2019-02-17T12:25:06.851Z,2.27
2019-02-17T12:27:54.296Z,1.83
2019-02-17T12:30:24.683Z,1.60
2019-02-17T12:32:53.590Z,1.80
2019-02-17T12:35:22.339Z,1.77
2019-02-17T12:37:51.018Z,1.33
2019-02-17T12:40:19.694Z,1.50
2019-02-17T12:42:48.342Z,2.80
2019-02-17T12:45:18.349Z,2.33
2019-02-17T12:47:55.419Z,3.03
2019-02-17T12:50:17.311Z,2.80
2019-02-17T12:52:47.778Z,2.57
2019-02-17T12:55:16.340Z,2.27
2019-02-17T12:57:45.088Z,2.10
2019-02-17T13:00:16.366Z,2.27
2019-02-17T13:02:45.055Z,1.47
2019-02-17T13:05:13.734Z,1.40
2019-02-17T13:07:42.996Z,2.00
2019-02-17T13:10:11.818Z,1.63
2019-02-17T13:12:40.101Z,1.93
2019-02-17T13:15:10.046Z,1.83
2019-02-17T13:17:39.588Z,1.90
2019-02-17T13:20:09.952Z,1.83
2019-02-17T13:22:38.879Z,1.97
2019-02-17T13:25:08.797Z,1.57
2019-02-17T13:27:37.523Z,2.13
2019-02-17T13:30:09.133Z,1.90
2019-02-17T13:32:37.782Z,1.53
2019-02-17T13:35:06.894Z,1.50
2019-02-17T13:37:35.658Z,1.77
2019-02-17T13:40:04.471Z,1.77
2019-02-17T13:42:33.126Z,1.50
2019-02-17T13:45:01.808Z,1.60
2019-02-17T13:47:30.509Z,1.70
2019-02-17T13:49:59.221Z,1.80
2019-02-17T13:52:28.210Z,1.27
2019-02-17T13:54:57.065Z,1.37
2019-02-17T13:57:25.452Z,1.83
2019-02-17T13:59:55.186Z,1.70
2019-02-17T14:02:23.942Z,1.80
2019-02-17T14:04:52.598Z,1.30
2019-02-17T14:07:21.258Z,1.50
2019-02-17T14:09:50.114Z,1.37
2019-02-17T14:12:18.842Z,1.70
2019-02-17T14:14:47.495Z,1.33
2019-02-17T14:17:16.141Z,1.30
2019-02-17T14:19:44.405Z,1.23
2019-02-17T14:22:13.071Z,1.40
2019-02-17T14:24:41.800Z,1.10
2019-02-17T14:27:10.515Z,1.30
2019-02-17T14:29:39.170Z,1.57
2019-02-17T14:32:07.843Z,1.00
2019-02-17T14:34:36.562Z,1.03
2019-02-17T14:37:05.229Z,0.90
2019-02-17T14:39:33.574Z,1.07
2019-02-17T14:42:02.325Z,1.30
2019-02-17T14:44:31.175Z,1.10
2019-02-17T14:47:03.258Z,1.40
2019-02-17T14:49:32.021Z,1.20
2019-02-17T14:52:00.962Z,1.20
2019-02-17T14:54:29.633Z,1.13
2019-02-17T14:56:58.321Z,1.70
2019-02-17T14:59:27.927Z,1.20
2019-02-17T15:01:56.345Z,1.10
2019-02-17T15:04:24.623Z,1.40
2019-02-17T15:06:53.459Z,1.80
2019-02-17T15:09:22.409Z,1.70
2019-02-17T15:11:51.732Z,1.20
2019-02-17T15:14:20.482Z,1.30
2019-02-17T15:16:49.650Z,1.33
2019-02-17T15:19:19.229Z,1.57
2019-02-17T15:21:47.872Z,1.33
2019-02-17T15:24:16.155Z,1.03
2019-02-17T15:26:44.897Z,1.10
2019-02-17T15:29:13.594Z,1.20
2019-02-17T15:31:42.276Z,1.20
2019-02-17T15:34:18.454Z,1.17
2019-02-17T15:36:42.598Z,1.20
2019-02-17T15:39:11.229Z,1.40
2019-02-17T15:41:39.890Z,1.83
2019-02-17T15:44:11.347Z,1.63
2019-02-17T15:46:39.688Z,1.50
2019-02-17T15:49:08.702Z,1.80
2019-02-17T15:51:37.348Z,1.87
2019-02-17T15:54:06.023Z,2.60
2019-02-17T15:56:34.751Z,4.60
2019-02-17T15:59:03.421Z,4.50
2019-02-17T16:01:32.131Z,11.40
2019-02-17T16:04:01.167Z,10.87
2019-02-17T16:06:30.007Z,5.60
2019-02-17T16:08:58.522Z,4.67
2019-02-17T16:11:27.498Z,4.40
2019-02-17T16:13:56.715Z,6.33
2019-02-17T16:16:25.652Z,26.87
2019-02-17T16:18:54.645Z,30.80
2019-02-17T16:21:23.693Z,25.83
2019-02-17T16:23:52.628Z,15.30
2019-02-17T16:26:21.473Z,9.83
2019-02-17T16:28:50.386Z,8.80
2019-02-17T16:31:18.893Z,6.60
2019-02-17T16:33:48.015Z,5.70
2019-02-17T16:36:16.991Z,5.20
2019-02-17T16:38:46.041Z,3.40
2019-02-17T16:41:15.098Z,3.00
2019-02-17T16:43:44.003Z,2.87
2019-02-17T16:46:12.884Z,2.60
2019-02-17T16:48:41.850Z,5.93
2019-02-17T16:51:10.895Z,5.10
2019-02-17T16:53:39.345Z,11.23
2019-02-17T16:56:08.203Z,22.27
2019-02-17T16:58:36.963Z,13.73
2019-02-17T17:01:06.172Z,6.90
2019-02-17T17:03:35.384Z,6.13
2019-02-17T17:06:04.152Z,2.83
2019-02-17T17:08:32.884Z,2.73
2019-02-17T17:11:02.060Z,2.20
2019-02-17T17:13:31.181Z,2.70
2019-02-17T17:15:59.456Z,2.37
2019-02-17T17:18:28.109Z,3.53
2019-02-17T17:20:56.841Z,2.87
2019-02-17T17:23:25.603Z,5.90
2019-02-17T17:25:54.310Z,6.93
2019-02-17T17:28:22.976Z,5.90
2019-02-17T17:30:51.681Z,5.73
2019-02-17T17:33:20.350Z,5.20
2019-02-17T17:35:48.697Z,3.13
2019-02-17T17:38:17.065Z,3.37
2019-02-17T17:40:45.808Z,3.30
2019-02-17T17:43:14.637Z,4.13
2019-02-17T17:45:43.377Z,3.33
2019-02-17T17:48:12.025Z,3.27
2019-02-17T17:50:40.767Z,2.33
2019-02-17T17:53:09.495Z,4.00
2019-02-17T17:55:38.280Z,2.37
2019-02-17T17:58:06.555Z,2.63
2019-02-17T18:00:36.494Z,2.73
2019-02-17T18:03:05.444Z,2.40
2019-02-17T18:05:34.677Z,3.83
2019-02-17T18:08:03.374Z,3.47
2019-02-17T18:10:32.022Z,3.47
2019-02-17T18:13:00.701Z,3.43
2019-02-17T18:15:29.534Z,5.80
2019-02-17T18:17:58.282Z,5.90
2019-02-17T18:20:26.581Z,6.40
2019-02-17T18:22:55.302Z,18.00
2019-02-17T18:25:24.001Z,10.53
2019-02-17T18:27:55.245Z,8.83
2019-02-17T18:30:24.296Z,6.70
2019-02-17T18:32:55.785Z,16.23
2019-02-17T18:35:24.681Z,5.30
2019-02-17T18:37:53.341Z,5.83
2019-02-17T18:40:22.033Z,5.22
2019-02-17T18:42:50.373Z,5.00
2019-02-17T18:45:19.118Z,12.73
2019-02-17T18:47:47.934Z,10.78
2019-02-17T18:50:16.741Z,17.37
2019-02-17T18:52:45.605Z,21.30
2019-02-17T18:55:14.474Z,16.45
2019-02-17T18:57:50.096Z,7.65
2019-02-17T19:00:14.573Z,5.30
2019-02-17T19:02:43.239Z,5.95
2019-02-17T19:05:11.529Z,8.18
2019-02-17T19:07:40.893Z,9.40
2019-02-17T19:10:10.927Z,16.05
2019-02-17T19:12:39.630Z,13.20
2019-02-17T19:15:09.721Z,13.30
2019-02-17T19:17:38.473Z,11.20
2019-02-17T19:20:09.000Z,11.28
2019-02-17T19:22:37.681Z,9.68
2019-02-17T19:25:06.274Z,11.30
2019-02-17T19:27:34.609Z,16.70
2019-02-17T19:30:03.382Z,15.45
2019-02-17T19:32:32.114Z,19.48
2019-02-17T19:35:00.876Z,18.40
2019-02-17T19:37:29.605Z,18.98
2019-02-17T19:39:58.281Z,16.12
2019-02-17T19:42:26.946Z,13.93
2019-02-17T19:44:55.878Z,9.75
2019-02-17T19:47:24.210Z,10.75
2019-02-17T19:49:52.905Z,8.68
2019-02-17T19:52:21.710Z,5.22
2019-02-17T19:54:50.377Z,19.32
2019-02-17T19:57:19.077Z,41.35
2019-02-17T19:59:47.741Z,17.42
2019-02-17T20:02:18.121Z,8.98
2019-02-17T20:04:52.081Z,8.08
2019-02-17T20:07:20.369Z,22.13
2019-02-17T20:09:49.055Z,53.05
2019-02-17T20:12:18.236Z,39.40
2019-02-17T20:14:48.072Z,33.40
2019-02-17T20:17:16.731Z,42.35
2019-02-17T20:19:45.401Z,28.50
2019-02-17T20:22:14.127Z,40.65
2019-02-17T20:24:42.804Z,25.45
2019-02-17T20:27:11.490Z,29.05
2019-02-17T20:29:39.813Z,29.15
2019-02-17T20:32:08.958Z,25.15
2019-02-17T20:34:37.653Z,19.73
2019-02-17T20:37:06.354Z,20.15
2019-02-17T20:39:35.029Z,17.87
2019-02-17T20:42:03.767Z,21.17
2019-02-17T20:44:32.792Z,18.62
2019-02-17T20:47:01.507Z,60.52
2019-02-17T20:49:30.194Z,51.08
2019-02-17T20:51:58.550Z,25.00
2019-02-17T20:54:27.244Z,22.48
2019-02-17T20:56:55.930Z,14.78
2019-02-17T20:59:24.589Z,15.55
2019-02-17T21:01:53.518Z,24.90
2019-02-17T21:04:22.729Z,38.17
2019-02-17T21:06:51.588Z,33.10
2019-02-17T21:09:20.325Z,34.00
2019-02-17T21:11:49.181Z,31.97
2019-02-17T21:14:17.514Z,35.30
2019-02-17T21:16:46.249Z,31.90
2019-02-17T21:19:14.912Z,33.78
2019-02-17T21:21:43.596Z,27.45
2019-02-17T21:24:12.583Z,25.95
2019-02-17T21:26:41.286Z,25.75
2019-02-17T21:29:09.975Z,19.37
2019-02-17T21:31:38.650Z,20.57
2019-02-17T21:34:06.935Z,22.77
2019-02-17T21:36:35.220Z,24.90
2019-02-17T21:39:04.730Z,29.72
2019-02-17T21:41:33.376Z,28.05
2019-02-17T21:44:02.081Z,26.27
2019-02-17T21:46:30.806Z,23.18
2019-02-17T21:48:59.560Z,18.60
2019-02-17T21:51:28.278Z,21.20
2019-02-17T21:53:57.025Z,23.45
2019-02-17T21:56:25.361Z,17.87
2019-02-17T21:58:54.373Z,18.92
2019-02-17T22:01:23.106Z,16.67
2019-02-17T22:03:51.811Z,16.17
2019-02-17T22:06:20.567Z,14.78
2019-02-17T22:08:49.237Z,12.68
2019-02-17T22:11:17.925Z,14.15
2019-02-17T22:13:46.663Z,13.98
2019-02-17T22:16:15.505Z,13.48
2019-02-17T22:18:43.802Z,15.50
2019-02-17T22:21:12.573Z,20.68
2019-02-17T22:23:41.262Z,20.72
2019-02-17T22:26:10.185Z,19.57
2019-02-17T22:28:38.965Z,19.05
2019-02-17T22:31:07.875Z,21.12
2019-02-17T22:33:37.840Z,16.57
2019-02-17T22:36:06.557Z,18.32
2019-02-17T22:38:35.301Z,16.93
2019-02-17T22:41:03.686Z,16.02
2019-02-17T22:43:32.396Z,18.90
2019-02-17T22:46:01.069Z,19.17
2019-02-17T22:48:29.862Z,18.75
2019-02-17T22:50:58.962Z,19.17
2019-02-17T22:53:27.702Z,17.27
2019-02-17T22:55:56.467Z,19.42
2019-02-17T22:58:25.126Z,19.00
2019-02-17T23:00:58.367Z,14.93
2019-02-17T23:03:26.950Z,16.85
2019-02-17T23:05:55.693Z,18.50
2019-02-17T23:08:24.405Z,20.02
2019-02-17T23:10:53.296Z,19.55
2019-02-17T23:13:22.903Z,23.87
2019-02-17T23:15:51.544Z,23.10
2019-02-17T23:18:20.217Z,24.65
2019-02-17T23:20:48.931Z,23.45
2019-02-17T23:23:17.260Z,20.35
2019-02-17T23:25:45.985Z,21.68
2019-02-17T23:28:14.669Z,19.65
2019-02-17T23:30:43.425Z,17.77
2019-02-17T23:33:12.070Z,18.30
2019-02-17T23:35:40.989Z,19.60
2019-02-17T23:38:09.713Z,18.48
2019-02-17T23:40:38.396Z,18.20
2019-02-17T23:43:07.078Z,16.02
2019-02-17T23:45:35.461Z,16.80
2019-02-17T23:48:04.138Z,18.48
2019-02-17T23:50:32.857Z,18.07
2019-02-17T23:53:01.518Z,16.82
2019-02-17T23:55:30.184Z,18.60
2019-02-17T23:57:58.958Z,18.70
